Cegled, Hungary
Current Conditions -  °F | °C
As of 2:15 PM on Friday 21 Nov 2014 (Local Time) from LHKE Reporting Station
Overcast Overcast  
Wind Chill: 43°   Ceiling: 800
Heat Index: 43°   Visibility: 4mi
Dew Point: 39°   Wind: 2mph
Humidity: 87%   Direction: 310°NW
Pressure: 30.27"   Gusts: NA
Location:  47.18°N, 19.78°E
Report Text: LHKE 211215Z 31002KT 7000 BKN008 OVC012 06/04 Q1025 NOSIG RMK GRN
Loading
Personal Weather Stations






























Interactive Weather Map New forecast layout! Learn more

10-Day Weather Forecast

Advertisements
Track Severe Weather on mobile